createdAt,value
2018-02-24T00:02:29.444Z,80.53
2018-02-24T00:05:02.174Z,73.05
2018-02-24T00:07:33.568Z,76.43
2018-02-24T00:10:03.067Z,69.93
2018-02-24T00:12:33.189Z,80.10
2018-02-24T00:15:01.253Z,71.28
2018-02-24T00:17:28.898Z,70.37
2018-02-24T00:19:59.980Z,76.93
2018-02-24T00:22:30.930Z,68.95
2018-02-24T00:25:02.196Z,72.97
2018-02-24T00:27:31.692Z,45.05
2018-02-24T00:30:00.451Z,65.47
2018-02-24T00:32:30.814Z,73.00
2018-02-24T00:35:07.533Z,47.08
2018-02-24T00:37:35.045Z,65.85
2018-02-24T00:40:03.739Z,73.28
2018-02-24T00:42:31.416Z,56.22
2018-02-24T00:44:59.125Z,62.60
2018-02-24T00:47:29.058Z,69.95
2018-02-24T00:49:59.050Z,61.40
2018-02-24T00:52:27.437Z,72.90
2018-02-24T00:55:01.104Z,64.80
2018-02-24T00:57:30.976Z,67.72
2018-02-24T01:00:00.575Z,55.65
2018-02-24T01:02:30.692Z,62.10
2018-02-24T01:04:59.920Z,71.43
2018-02-24T01:07:28.298Z,75.32
2018-02-24T01:09:56.972Z,72.62
2018-02-24T01:12:30.298Z,73.50
2018-02-24T01:15:00.084Z,80.35
2018-02-24T01:17:29.049Z,65.15
2018-02-24T01:19:58.448Z,74.40
2018-02-24T01:22:28.690Z,63.55
2018-02-24T01:24:57.865Z,64.20
2018-02-24T01:27:27.132Z,74.47
2018-02-24T01:29:55.994Z,74.55
2018-02-24T01:32:25.902Z,69.65
2018-02-24T01:34:54.929Z,68.20
2018-02-24T01:37:22.615Z,67.07
2018-02-24T01:39:50.975Z,70.05
2018-02-24T01:42:20.126Z,71.68
2018-02-24T01:44:48.736Z,81.53
2018-02-24T01:47:17.582Z,67.72
2018-02-24T01:49:51.981Z,66.22
2018-02-24T01:52:22.219Z,62.17
2018-02-24T01:54:51.283Z,63.87
2018-02-24T01:57:21.166Z,67.12
2018-02-24T01:59:52.795Z,71.72
2018-02-24T02:02:20.853Z,70.78
2018-02-24T02:04:49.182Z,89.45
2018-02-24T02:07:20.263Z,65.95
2018-02-24T02:09:51.159Z,75.53
2018-02-24T02:12:19.838Z,72.30
2018-02-24T02:14:48.462Z,83.32
2018-02-24T02:17:20.225Z,68.07
2018-02-24T02:19:50.987Z,49.78
2018-02-24T02:22:21.209Z,85.43
2018-02-24T02:24:49.539Z,71.60
2018-02-24T02:27:19.041Z,83.03
2018-02-24T02:29:51.117Z,80.38
2018-02-24T02:32:19.718Z,73.55
2018-02-24T02:34:49.118Z,85.10
2018-02-24T02:37:20.005Z,92.78
2018-02-24T02:39:50.377Z,80.07
2018-02-24T02:42:25.775Z,75.95
2018-02-24T02:44:56.015Z,83.45
2018-02-24T02:47:23.676Z,67.10
2018-02-24T02:49:53.192Z,78.05
2018-02-24T02:52:22.562Z,79.68
2018-02-24T02:54:58.371Z,82.95
2018-02-24T02:57:26.359Z,81.65
2018-02-24T02:59:54.724Z,79.18
2018-02-24T03:02:23.446Z,82.05
2018-02-24T03:04:51.448Z,79.55
2018-02-24T03:07:20.357Z,82.90
2018-02-24T03:09:51.187Z,78.80
2018-02-24T03:12:22.027Z,85.55
2018-02-24T03:14:51.266Z,68.55
2018-02-24T03:17:22.839Z,79.85
2018-02-24T03:19:50.363Z,85.22
2018-02-24T03:22:19.261Z,72.97
2018-02-24T03:24:49.418Z,82.47
2018-02-24T03:27:17.420Z,78.85
2018-02-24T03:29:45.419Z,75.75
2018-02-24T03:32:13.076Z,62.28
2018-02-24T03:34:40.754Z,80.75
2018-02-24T03:37:08.374Z,78.57
2018-02-24T03:39:40.819Z,73.15
2018-02-24T03:42:08.435Z,82.45
2018-02-24T03:44:36.702Z,71.35
2018-02-24T03:47:05.055Z,74.87
2018-02-24T03:49:35.020Z,70.20
2018-02-24T03:52:02.612Z,64.62
2018-02-24T03:54:31.207Z,72.70
2018-02-24T03:56:59.714Z,68.07
2018-02-24T03:59:34.743Z,78.22
2018-02-24T04:02:05.196Z,58.50
2018-02-24T04:04:34.098Z,73.53
2018-02-24T04:07:03.090Z,73.93
2018-02-24T04:09:31.948Z,79.78
2018-02-24T04:12:02.351Z,70.25
2018-02-24T04:14:32.094Z,86.03
2018-02-24T04:17:01.654Z,73.97
2018-02-24T04:19:34.735Z,75.72
2018-02-24T04:22:04.085Z,68.70
2018-02-24T04:24:36.877Z,81.43
2018-02-24T04:27:04.845Z,79.87
2018-02-24T04:29:35.547Z,68.85
2018-02-24T04:37:15.638Z,61.67
2018-02-24T04:39:46.214Z,80.43
2018-02-24T04:42:14.499Z,55.90
2018-02-24T04:44:49.327Z,62.55
2018-02-24T04:47:23.721Z,64.80
2018-02-24T04:49:53.861Z,60.40
2018-02-24T04:52:24.643Z,58.28
2018-02-24T04:54:53.170Z,59.85
2018-02-24T04:57:25.812Z,74.32
2018-02-24T05:00:02.063Z,91.95
2018-02-24T05:02:50.426Z,85.38
2018-02-24T05:07:59.558Z,90.15
2018-02-24T05:10:28.591Z,75.37
2018-02-24T05:12:57.294Z,54.78
2018-02-24T05:15:26.844Z,98.00
2018-02-24T05:18:03.969Z,107.97
2018-02-24T05:20:39.796Z,113.18
2018-02-24T05:23:15.884Z,67.78
2018-02-24T05:25:49.172Z,74.25
2018-02-24T05:28:20.226Z,91.28
2018-02-24T05:30:50.377Z,107.90
2018-02-24T05:33:29.312Z,121.70
2018-02-24T05:35:58.363Z,76.55
2018-02-24T05:38:28.073Z,100.18
2018-02-24T05:40:57.077Z,98.35
2018-02-24T05:43:27.685Z,95.40
2018-02-24T05:45:57.291Z,128.00
2018-02-24T05:48:25.165Z,104.12
2018-02-24T05:50:57.449Z,108.50
2018-02-24T05:53:25.587Z,97.60
2018-02-24T05:55:57.120Z,118.07
2018-02-24T05:58:35.600Z,100.43
2018-02-24T06:01:03.607Z,107.53
2018-02-24T06:03:32.612Z,115.72
2018-02-24T06:06:05.596Z,106.37
2018-02-24T06:08:39.262Z,110.97
2018-02-24T06:11:15.507Z,89.97
2018-02-24T06:13:49.317Z,125.80
2018-02-24T06:16:21.483Z,107.70
2018-02-24T06:18:59.402Z,108.72
2018-02-24T06:21:29.107Z,52.47
2018-02-24T06:23:58.244Z,100.35
2018-02-24T06:26:28.674Z,97.32
2018-02-24T06:28:58.071Z,108.15
2018-02-24T06:31:32.575Z,97.90
2018-02-24T06:34:13.945Z,94.65
2018-02-24T06:36:45.360Z,92.55
2018-02-24T06:39:15.457Z,106.97
2018-02-24T06:41:43.502Z,91.25
2018-02-24T06:44:11.460Z,105.12
2018-02-24T06:46:45.073Z,96.68
2018-02-24T06:49:20.590Z,78.53
2018-02-24T06:51:49.394Z,105.12
2018-02-24T06:54:18.429Z,92.88
2018-02-24T06:56:48.905Z,81.75
2018-02-24T06:59:20.030Z,99.07
2018-02-24T07:01:55.533Z,64.82
2018-02-24T07:04:26.731Z,96.50
2018-02-24T07:09:48.810Z,89.72
2018-02-24T07:12:17.340Z,92.95
2018-02-24T07:14:46.153Z,79.10
2018-02-24T07:17:14.896Z,79.47
2018-02-24T07:19:43.900Z,87.93
2018-02-24T07:22:12.444Z,83.22
2018-02-24T07:24:41.716Z,78.00
2018-02-24T07:27:15.983Z,57.40
2018-02-24T07:29:46.526Z,84.50
2018-02-24T07:32:19.471Z,77.18
2018-02-24T07:34:51.975Z,82.25
2018-02-24T07:37:20.406Z,67.75
2018-02-24T07:39:48.038Z,60.55
2018-02-24T07:42:27.215Z,45.83
2018-02-24T07:45:01.670Z,59.47
2018-02-24T07:47:38.173Z,62.30
2018-02-24T07:50:11.201Z,70.30
2018-02-24T07:52:47.651Z,77.30
2018-02-24T07:55:16.354Z,78.97
2018-02-24T07:57:48.792Z,62.50
2018-02-24T08:00:16.430Z,63.58
2018-02-24T08:02:44.986Z,74.25
2018-02-24T08:05:14.962Z,52.40
2018-02-24T08:07:55.024Z,82.70
2018-02-24T08:10:23.454Z,63.45
2018-02-24T08:12:52.196Z,84.07
2018-02-24T08:15:20.897Z,73.43
2018-02-24T08:17:48.628Z,72.87
2018-02-24T08:20:16.318Z,83.43
2018-02-24T08:22:49.875Z,84.95
2018-02-24T08:25:23.245Z,73.03
2018-02-24T08:28:02.954Z,74.07
2018-02-24T08:30:35.005Z,84.40
2018-02-24T08:33:02.805Z,81.35
2018-02-24T08:35:30.865Z,78.40
2018-02-24T08:40:43.832Z,91.18
2018-02-24T08:43:13.284Z,81.07
2018-02-24T08:48:25.445Z,60.08
2018-02-24T08:51:06.588Z,80.43
2018-02-24T08:53:34.693Z,78.40
2018-02-24T08:56:03.067Z,75.25
2018-02-24T08:58:31.329Z,56.15
2018-02-24T09:01:00.814Z,78.00
2018-02-24T09:03:28.685Z,76.50
2018-02-24T09:05:57.352Z,66.45
2018-02-24T09:08:25.551Z,59.70
2018-02-24T09:10:56.510Z,70.12
2018-02-24T09:13:30.067Z,76.85
2018-02-24T09:16:02.438Z,72.97
2018-02-24T09:18:32.200Z,59.90
2018-02-24T09:21:00.843Z,57.10
2018-02-24T09:23:33.368Z,72.18
2018-02-24T09:26:01.293Z,61.13
2018-02-24T09:28:30.889Z,62.40
2018-02-24T09:31:04.664Z,44.40
2018-02-24T09:33:33.127Z,59.08
2018-02-24T09:36:15.523Z,66.65
2018-02-24T09:38:52.555Z,82.37
2018-02-24T09:41:22.991Z,73.53
2018-02-24T09:46:35.554Z,59.13
2018-02-24T09:49:06.510Z,65.35
2018-02-24T09:51:34.242Z,71.82
2018-02-24T09:56:49.675Z,52.13
2018-02-24T09:59:19.044Z,62.15
2018-02-24T10:01:49.139Z,76.37
2018-02-24T10:04:20.024Z,63.83
2018-02-24T10:06:50.123Z,73.05
2018-02-24T10:09:21.893Z,63.35
2018-02-24T10:11:53.725Z,69.18
2018-02-24T10:14:21.307Z,71.45
2018-02-24T10:16:49.534Z,66.70
2018-02-24T10:19:16.999Z,54.97
2018-02-24T10:21:44.460Z,52.00
2018-02-24T10:24:11.922Z,55.72
2018-02-24T10:26:39.386Z,61.72
2018-02-24T10:29:07.234Z,53.67
2018-02-24T10:31:35.476Z,60.22
2018-02-24T10:34:03.696Z,73.82
2018-02-24T10:36:31.143Z,61.90
2018-02-24T10:38:58.595Z,63.33
2018-02-24T10:41:27.557Z,62.42
2018-02-24T10:43:55.035Z,73.57
2018-02-24T10:46:22.496Z,78.90
2018-02-24T10:48:55.758Z,46.78
2018-02-24T10:51:23.252Z,69.93
2018-02-24T10:53:50.789Z,77.82
2018-02-24T10:56:19.158Z,59.97
2018-02-24T10:58:46.678Z,63.58
2018-02-24T11:01:14.969Z,51.65
2018-02-24T11:03:42.458Z,73.12
2018-02-24T11:06:09.978Z,60.60
2018-02-24T11:08:37.537Z,66.30
2018-02-24T11:11:05.066Z,74.20
2018-02-24T11:13:32.586Z,61.70
2018-02-24T11:16:00.105Z,61.05
2018-02-24T11:18:27.697Z,65.25
2018-02-24T11:20:55.196Z,75.18
2018-02-24T11:23:22.685Z,39.92
2018-02-24T11:25:50.228Z,76.82
2018-02-24T11:28:17.678Z,57.10
2018-02-24T11:30:45.134Z,57.10
2018-02-24T11:33:13.373Z,67.10
2018-02-24T11:35:41.240Z,61.00
2018-02-24T11:38:09.464Z,50.47
2018-02-24T11:40:37.712Z,43.90
2018-02-24T11:43:05.208Z,58.50
2018-02-24T11:45:33.424Z,67.12
2018-02-24T11:48:01.159Z,53.15
2018-02-24T11:50:28.613Z,62.95
2018-02-24T11:52:56.460Z,53.45
2018-02-24T11:55:24.811Z,61.28
2018-02-24T11:57:52.270Z,53.00
2018-02-24T12:00:19.730Z,51.08
2018-02-24T12:02:47.183Z,55.33
2018-02-24T12:05:14.650Z,54.13
2018-02-24T12:07:42.113Z,54.95
2018-02-24T12:10:09.565Z,42.13
2018-02-24T12:12:37.021Z,51.78
2018-02-24T12:15:04.483Z,42.55
2018-02-24T12:17:32.706Z,35.63
2018-02-24T12:20:00.165Z,44.03
2018-02-24T12:22:27.666Z,45.63
2018-02-24T12:24:55.277Z,44.85
2018-02-24T12:27:22.726Z,34.92
2018-02-24T12:29:50.177Z,52.15
2018-02-24T12:32:17.634Z,41.30
2018-02-24T12:34:45.107Z,42.08
2018-02-24T12:37:13.322Z,44.13
2018-02-24T12:39:40.778Z,44.75
2018-02-24T12:42:08.251Z,43.80
2018-02-24T12:44:36.483Z,45.75
2018-02-24T12:47:04.144Z,47.67
2018-02-24T12:49:31.670Z,46.25
2018-02-24T12:51:59.431Z,50.15
2018-02-24T12:54:27.092Z,47.70
2018-02-24T12:56:54.599Z,46.35
2018-02-24T12:59:22.056Z,55.95
2018-02-24T13:01:49.515Z,52.78
2018-02-24T13:04:16.969Z,58.33
2018-02-24T13:06:44.420Z,40.05
2018-02-24T13:09:11.903Z,49.65
2018-02-24T13:11:39.353Z,35.03
2018-02-24T13:14:06.816Z,34.95
2018-02-24T13:16:34.266Z,48.90
2018-02-24T13:19:01.723Z,50.42
2018-02-24T13:21:29.175Z,45.05
2018-02-24T13:23:56.630Z,48.28
2018-02-24T13:26:24.081Z,51.85
2018-02-24T13:28:51.542Z,48.70
2018-02-24T13:31:18.998Z,47.83
2018-02-24T13:33:46.473Z,30.77
2018-02-24T13:36:14.724Z,27.95
2018-02-24T13:38:42.950Z,49.65
2018-02-24T13:41:10.411Z,45.20
2018-02-24T13:43:37.865Z,46.70
2018-02-24T13:46:05.315Z,67.75
2018-02-24T13:48:32.765Z,40.63
2018-02-24T13:51:01.003Z,43.65
2018-02-24T13:53:28.445Z,41.05
2018-02-24T13:55:55.901Z,39.47
2018-02-24T13:58:23.364Z,32.70
2018-02-24T14:00:50.827Z,38.53
2018-02-24T14:03:18.296Z,48.87
2018-02-24T14:05:45.729Z,53.67
2018-02-24T14:08:13.201Z,47.33
2018-02-24T14:10:40.644Z,37.38
2018-02-24T14:13:08.115Z,42.78
2018-02-24T14:15:35.544Z,48.87
2018-02-24T14:18:03.010Z,45.05
2018-02-24T14:20:30.475Z,48.90
2018-02-24T14:22:57.926Z,52.33
2018-02-24T14:25:25.378Z,45.63
2018-02-24T14:27:55.916Z,43.67
2018-02-24T14:30:23.377Z,35.42
2018-02-24T14:32:50.832Z,48.85
2018-02-24T14:35:18.701Z,30.98
2018-02-24T14:37:46.191Z,27.45
2018-02-24T14:40:14.425Z,55.90
2018-02-24T14:42:42.646Z,46.47
2018-02-24T14:45:10.879Z,36.88
2018-02-24T14:47:38.335Z,41.88
2018-02-24T14:50:06.673Z,36.97
2018-02-24T14:52:34.116Z,47.38
2018-02-24T14:55:01.578Z,42.53
2018-02-24T14:57:29.789Z,47.50
2018-02-24T14:59:57.245Z,52.22
2018-02-24T15:02:24.699Z,38.33
2018-02-24T15:04:52.155Z,25.75
2018-02-24T15:07:19.610Z,44.17
2018-02-24T15:09:47.803Z,51.20
2018-02-24T15:12:15.250Z,42.83
2018-02-24T15:14:43.476Z,48.17
2018-02-24T15:17:11.712Z,43.78
2018-02-24T15:19:39.199Z,40.90
2018-02-24T15:22:06.694Z,35.10
2018-02-24T15:24:34.155Z,41.92
2018-02-24T15:27:01.611Z,43.50
2018-02-24T15:29:29.063Z,34.45
2018-02-24T15:31:56.527Z,30.25
2018-02-24T15:34:23.979Z,38.42
2018-02-24T15:36:51.469Z,37.58
2018-02-24T15:39:18.979Z,43.70
2018-02-24T15:41:46.843Z,35.35
2018-02-24T15:44:15.083Z,35.65
2018-02-24T15:46:43.367Z,28.35
2018-02-24T15:49:10.858Z,36.20
2018-02-24T15:51:38.353Z,34.42
2018-02-24T15:54:05.861Z,33.30
2018-02-24T15:56:33.359Z,31.17
2018-02-24T15:59:00.822Z,19.70
2018-02-24T16:01:29.033Z,20.45
2018-02-24T16:03:57.268Z,22.75
2018-02-24T16:06:24.733Z,15.55
2018-02-24T16:08:52.953Z,30.45
2018-02-24T16:11:21.180Z,25.08
2018-02-24T16:13:48.636Z,24.40
2018-02-24T16:16:16.858Z,23.73
2018-02-24T16:18:45.069Z,29.55
2018-02-24T16:21:12.547Z,27.67
2018-02-24T16:23:39.998Z,21.98
2018-02-24T16:26:07.456Z,25.80
2018-02-24T16:28:34.927Z,24.27
2018-02-24T16:31:02.387Z,21.23
2018-02-24T16:33:29.842Z,14.77
2018-02-24T16:35:57.304Z,20.65
2018-02-24T16:38:25.581Z,27.08
2018-02-24T16:40:53.039Z,19.75
2018-02-24T16:43:20.894Z,21.42
2018-02-24T16:45:48.359Z,26.45
2018-02-24T16:48:15.826Z,25.40
2018-02-24T16:50:43.286Z,24.70
2018-02-24T16:53:11.523Z,29.63
2018-02-24T16:55:38.983Z,21.12
2018-02-24T16:58:06.444Z,25.58
2018-02-24T17:00:33.904Z,23.15
2018-02-24T17:03:01.371Z,33.10
2018-02-24T17:05:28.831Z,17.45
2018-02-24T17:07:56.319Z,42.88
2018-02-24T17:10:23.781Z,29.30
2018-02-24T17:12:51.228Z,22.77
2018-02-24T17:15:19.490Z,21.42
2018-02-24T17:17:47.015Z,24.40
2018-02-24T17:20:14.543Z,24.10
2018-02-24T17:22:42.055Z,20.25
2018-02-24T17:25:09.613Z,22.25
2018-02-24T17:27:37.051Z,23.48
2018-02-24T17:30:04.540Z,25.52
2018-02-24T17:32:32.086Z,19.83
2018-02-24T17:34:59.600Z,22.80
2018-02-24T17:37:27.102Z,30.42
2018-02-24T17:39:54.621Z,27.15
2018-02-24T17:42:22.946Z,30.95
2018-02-24T17:44:51.228Z,28.65
2018-02-24T17:47:20.422Z,24.77
2018-02-24T17:49:48.681Z,22.50
2018-02-24T17:52:16.186Z,23.92
2018-02-24T17:54:43.719Z,25.15
2018-02-24T17:57:12.000Z,23.62
2018-02-24T17:59:40.250Z,32.72
2018-02-24T18:02:07.768Z,29.23
2018-02-24T18:04:35.234Z,29.42
2018-02-24T18:07:02.693Z,34.58
2018-02-24T18:09:30.152Z,29.65
2018-02-24T18:11:57.616Z,26.92
2018-02-24T18:14:25.080Z,28.35
2018-02-24T18:16:52.537Z,32.65
2018-02-24T18:19:19.998Z,25.23
2018-02-24T18:21:47.461Z,32.63
2018-02-24T18:24:14.927Z,28.17
2018-02-24T18:26:42.384Z,33.00
2018-02-24T18:29:09.848Z,34.25
2018-02-24T18:31:37.346Z,33.05
2018-02-24T18:34:05.533Z,31.02
2018-02-24T18:36:33.202Z,26.27
2018-02-24T18:39:00.654Z,33.03
2018-02-24T18:41:28.122Z,33.78
2018-02-24T18:43:56.363Z,27.17
2018-02-24T18:46:23.820Z,29.73
2018-02-24T18:48:51.287Z,31.48
2018-02-24T18:51:18.811Z,33.47
2018-02-24T18:53:47.047Z,30.15
2018-02-24T18:56:14.507Z,32.40
2018-02-24T18:58:41.980Z,31.98
2018-02-24T19:01:09.447Z,26.35
2018-02-24T19:03:36.912Z,24.55
2018-02-24T19:06:05.136Z,27.35
2018-02-24T19:08:32.607Z,33.03
2018-02-24T19:11:00.060Z,40.42
2018-02-24T19:13:28.293Z,30.12
2018-02-24T19:15:55.776Z,38.95
2018-02-24T19:18:23.236Z,33.55
2018-02-24T19:20:50.698Z,38.85
2018-02-24T19:23:18.920Z,31.67
2018-02-24T19:25:47.152Z,33.97
2018-02-24T19:28:15.383Z,28.05
2018-02-24T19:30:43.041Z,22.10
2018-02-24T19:33:11.261Z,36.13
2018-02-24T19:35:39.502Z,44.65
2018-02-24T19:38:06.965Z,35.30
2018-02-24T19:40:34.437Z,28.67
2018-02-24T19:43:01.903Z,33.83
2018-02-24T19:45:29.783Z,37.00
2018-02-24T19:47:57.243Z,27.73
2018-02-24T19:50:25.105Z,39.83
2018-02-24T19:52:52.566Z,36.17
2018-02-24T19:55:20.032Z,26.90
2018-02-24T19:57:47.487Z,35.33
2018-02-24T20:00:14.954Z,36.40
2018-02-24T20:02:42.408Z,40.67
2018-02-24T20:05:09.879Z,39.78
2018-02-24T20:07:38.115Z,39.58
2018-02-24T20:10:05.581Z,25.98
2018-02-24T20:12:33.050Z,35.45
2018-02-24T20:15:00.509Z,30.40
2018-02-24T20:17:27.967Z,28.02
2018-02-24T20:19:55.436Z,26.92
2018-02-24T20:22:23.652Z,23.12
2018-02-24T20:24:51.118Z,22.48
2018-02-24T20:27:18.581Z,24.92
2018-02-24T20:29:46.058Z,24.75
2018-02-24T20:32:13.516Z,19.75
2018-02-24T20:34:40.970Z,15.02
2018-02-24T20:37:08.429Z,22.62
2018-02-24T20:39:36.916Z,20.02
2018-02-24T20:42:04.368Z,21.05
2018-02-24T20:44:31.817Z,9.77
2018-02-24T20:46:59.274Z,22.65
2018-02-24T20:49:27.135Z,12.63
2018-02-24T20:51:54.642Z,20.90
2018-02-24T20:54:22.063Z,24.23
2018-02-24T20:56:49.525Z,22.48
2018-02-24T20:59:16.988Z,15.70
2018-02-24T21:01:44.442Z,22.15
2018-02-24T21:04:11.915Z,22.48
2018-02-24T21:06:40.151Z,15.50
2018-02-24T21:09:07.604Z,19.33
2018-02-24T21:11:35.069Z,20.92
2018-02-24T21:14:02.528Z,20.20
2018-02-24T21:16:29.980Z,19.02
2018-02-24T21:18:58.198Z,17.80
2018-02-24T21:21:26.421Z,19.10
2018-02-24T21:23:53.870Z,13.88
2018-02-24T21:26:22.122Z,24.65
2018-02-24T21:28:49.570Z,22.42
2018-02-24T21:31:17.023Z,19.17
2018-02-24T21:33:45.238Z,17.17
2018-02-24T21:36:13.452Z,16.60
2018-02-24T21:38:41.691Z,15.15
2018-02-24T21:41:09.150Z,20.17
2018-02-24T21:43:36.613Z,16.25
2018-02-24T21:46:04.082Z,22.30
2018-02-24T21:48:31.538Z,18.48
2018-02-24T21:50:58.993Z,24.65
2018-02-24T21:53:27.598Z,10.35
2018-02-24T21:55:55.830Z,20.95
2018-02-24T21:58:23.295Z,17.48
2018-02-24T22:00:50.759Z,22.80
2018-02-24T22:03:18.218Z,17.80
2018-02-24T22:05:45.677Z,20.65
2018-02-24T22:08:13.135Z,11.40
2018-02-24T22:10:40.593Z,16.98
2018-02-24T22:13:08.050Z,16.67
2018-02-24T22:15:35.509Z,23.98
2018-02-24T22:18:02.970Z,15.32
2018-02-24T22:20:30.480Z,89.75
2018-02-24T22:22:57.942Z,15.93
2018-02-24T22:25:25.406Z,11.15
2018-02-24T22:27:52.854Z,13.75
2018-02-24T22:30:21.092Z,14.00
2018-02-24T22:32:49.318Z,15.48
2018-02-24T22:35:16.780Z,14.00
2018-02-24T22:37:44.240Z,16.95
2018-02-24T22:40:11.702Z,13.32
2018-02-24T22:42:39.150Z,15.88
2018-02-24T22:45:06.604Z,15.88
2018-02-24T22:47:39.706Z,6.93
2018-02-24T22:50:07.156Z,5.87
2018-02-24T22:52:34.610Z,10.32
2018-02-24T22:55:02.477Z,12.45
2018-02-24T22:57:29.921Z,14.23
2018-02-24T22:59:57.385Z,9.68
2018-02-24T23:02:24.835Z,7.80
2018-02-24T23:04:52.311Z,6.75
2018-02-24T23:07:19.759Z,8.15
2018-02-24T23:09:47.209Z,13.57
2018-02-24T23:12:14.674Z,9.45
2018-02-24T23:14:42.546Z,11.40
2018-02-24T23:17:09.997Z,10.90
2018-02-24T23:19:38.214Z,9.27
2018-02-24T23:22:06.423Z,8.48
2018-02-24T23:24:33.888Z,13.55
2018-02-24T23:27:01.355Z,9.02
2018-02-24T23:29:28.809Z,10.82
2018-02-24T23:31:56.266Z,17.30
2018-02-24T23:34:23.724Z,10.05
2018-02-24T23:36:51.182Z,29.23
2018-02-24T23:39:18.649Z,8.13
2018-02-24T23:41:46.098Z,6.45
2018-02-24T23:44:13.556Z,8.63
2018-02-24T23:46:41.016Z,13.60
2018-02-24T23:49:08.467Z,6.97
2018-02-24T23:51:35.935Z,11.27
2018-02-24T23:54:04.897Z,5.47
2018-02-24T23:56:32.343Z,8.00
2018-02-24T23:58:59.806Z,8.68
